« 中継 小松飛行場 2019/7/28 sun | トップページ | 第7師団創隊64周年・東千歳駐屯地創立65周年記念行事【訓練展示編】 2019/5/26 sun »

2019/08/02

定点 富山空港 2019/8/2 fri

気がついたら・・ 8月ですよ。毎日酷暑で、出歩くのもうましか物。

RJNT 012339Z VRB01KT 9999 FEW040 32/23 Q1013 RMK 1CU040 A2992

20190802_rjnt_00elga

沖泊 ELGA  海水浴場に誰もいない

20190802_rjnt_01ja136a

20190802_rjnt_02ja136a

ANA313 RJTT-RJNT JA136A A321-272N

RJNT 020000Z VRB01KT 9999 FEW040 32/23 Q1013

20190802_rjnt_03ja9785

JA9785 AS350B TKB

20190802_rjnt_04ja136a

20190802_rjnt_05ja136a

ANA316 RJNT-RJTT JA136A A321-272N

RJNT 020100Z VRB02KT 9999 FEW040 32/22 Q1012

20190802_rjnt_06ja139t

毎日出動で忙しい

20190802_rjnt_07ja139t

JA139T AW139 富山県警察

20190802_rjnt_08ja135e

上空をIFR進入のへりがハイステーション

20190802_rjnt_09ja135e

JA135E EC135T2 JNS

20190802_rjnt_10ja135a

今日は、NEOが続きます

20190802_rjnt_11ja135a

ANA315 RJTT-RJNT JA135A A321-272N

RJNT 020200Z 34005KT 290V050 9999 FEW040 33/23 Q1011

20190802_rjnt_12ja01bk

JA01BK BK117C-2 KHI

シュミレート進入、ローアプローチして岐阜に帰って行きました。

20190802_rjnt_13ja135e

なにやら整備中

20190802_rjnt_14ja6516

JA6516 AS350B3 AKF

20190802_rjnt_15ja135e

八尾に向かうようで

20190802_rjnt_16ja135e

JA135E EC135T2 JNS

20190802_rjnt_17ja135a

20190802_rjnt_18ja135a

きっちり正対してお待ち

20190802_rjnt_19b18652

20190802_rjnt_20b18652

こちらもきっちりT-2で止めてスポットイン

20190802_rjnt_21b18652

CAL170 RCTP-RJNT B-18652 B737-8Q8

20190802_rjnt_22ja135a

20190802_rjnt_23ja135a

ANA1181 RJNT-RJCC JA135A A321-272N

20190802_rjnt_24ja135a

今年は千歳へは行けません・・

20190802_rjnt_25terminal

ドライブ・スタンプラリー開催中

20190802_rjnt_26terminal

台湾ランタン展は、大柄の新作がズラリ

20190802_rjnt_27terminal

熱い

RJNT 020200Z 34005KT 290V050 9999 FEW040 33/23 Q1011

20190802_rjnt_28b18652

CAL171 RJNT-RCTP B-18652 B737-8Q8

台湾加油

|

« 中継 小松飛行場 2019/7/28 sun | トップページ | 第7師団創隊64周年・東千歳駐屯地創立65周年記念行事【訓練展示編】 2019/5/26 sun »

富山空港」カテゴリの記事

コメント

コメントを書く



(ウェブ上には掲載しません)


コメントは記事投稿者が公開するまで表示されません。



« 中継 小松飛行場 2019/7/28 sun | トップページ | 第7師団創隊64周年・東千歳駐屯地創立65周年記念行事【訓練展示編】 2019/5/26 sun »